Time;durP1;ratioP1;P1;durP2;ratioP2;P2;SDS_P1;SDS_P2;PMS_P1;PMS_P2;Temp;Humidity;BMP_temperature;BMP_pressure;BME280_temperature;BME280_humidity;BME280_pressure;Samples;Min_cycle;Max_cycle;Signal;HPM_P1;HPM_P2
2022/07/12 00:00:27;;;;;;;9.55;6.45;;;;;;;17.63;71.90;102361.22;5028877;28;20068;-66
2022/07/12 00:02:53;;;;;;;9.43;6.55;;;;;;;17.62;71.64;102364.72;5027292;28;20018;-65
2022/07/12 00:05:18;;;;;;;7.95;6.50;;;;;;;17.58;71.43;102362.88;5029477;28;20035;-65
2022/07/12 00:07:43;;;;;;;8.45;6.32;;;;;;;17.54;71.20;102361.94;5029625;28;20554;-65
2022/07/12 00:10:08;;;;;;;13.02;7.93;;;;;;;17.49;71.63;102359.19;5027506;28;20025;-65
2022/07/12 00:12:34;;;;;;;7.63;6.07;;;;;;;17.48;71.53;102361.78;5036110;28;20036;-65
2022/07/12 00:14:59;;;;;;;11.13;6.43;;;;;;;17.44;71.88;102352.97;5028825;28;20109;-65
2022/07/12 00:17:24;;;;;;;8.65;6.45;;;;;;;17.37;71.85;102349.31;5025169;28;20840;-65
2022/07/12 00:19:50;;;;;;;10.80;7.20;;;;;;;17.34;72.55;102353.63;5027880;28;20038;-65
2022/07/12 00:22:16;;;;;;;8.88;6.80;;;;;;;17.33;72.09;102341.31;5029343;28;20514;-65
2022/07/12 00:24:41;;;;;;;10.00;5.85;;;;;;;17.28;71.73;102343.88;5025301;28;20033;-67
2022/07/12 00:27:06;;;;;;;8.13;6.13;;;;;;;17.27;71.95;102346.47;5030920;28;20044;-65
2022/07/12 00:29:32;;;;;;;8.13;6.07;;;;;;;17.24;71.95;102349.03;5028319;28;20044;-65
2022/07/12 00:31:57;;;;;;;8.40;5.82;;;;;;;17.23;72.03;102356.03;5029218;28;20116;-65
2022/07/12 00:34:22;;;;;;;8.45;5.82;;;;;;;17.21;71.61;102352.50;5027669;28;20038;-66
2022/07/12 00:36:48;;;;;;;6.90;6.05;;;;;;;17.16;71.66;102344.50;5029210;28;20080;-65
2022/07/12 00:39:13;;;;;;;8.20;6.25;;;;;;;17.10;71.89;102347.00;5016381;28;20506;-65
2022/07/12 00:41:38;;;;;;;9.75;7.03;;;;;;;17.08;72.03;102343.44;5029278;28;20057;-65
2022/07/12 00:44:04;;;;;;;8.55;6.55;;;;;;;17.03;72.13;102342.47;5030102;28;20030;-65
2022/07/12 00:46:31;;;;;;;11.10;7.90;;;;;;;16.97;72.09;102340.56;5029076;28;20102;-65
2022/07/12 00:48:56;;;;;;;8.43;7.00;;;;;;;16.95;72.35;102337.03;5026424;28;20021;-66
2022/07/12 00:51:21;;;;;;;8.88;6.60;;;;;;;16.91;72.36;102347.47;5027071;28;20044;-65
2022/07/12 00:53:47;;;;;;;8.32;7.00;;;;;;;16.86;72.15;102339.47;5027844;28;20025;-65
2022/07/12 00:56:14;;;;;;;10.57;7.75;;;;;;;16.83;72.02;102340.28;5027186;28;20036;-66
2022/07/12 00:58:40;;;;;;;10.05;7.10;;;;;;;16.81;71.79;102341.97;5027945;28;20029;-65
2022/07/12 01:01:06;;;;;;;9.13;7.03;;;;;;;16.78;71.90;102336.63;5030436;28;20063;-65
2022/07/12 01:03:31;;;;;;;9.27;6.78;;;;;;;16.77;71.45;102341.88;5032182;28;20053;-65
2022/07/12 01:05:57;;;;;;;7.97;6.55;;;;;;;16.75;71.21;102346.22;5031311;28;20192;-65
2022/07/12 01:08:23;;;;;;;8.93;6.30;;;;;;;16.68;71.52;102350.44;5031639;28;20034;-65
2022/07/12 01:10:51;;;;;;;10.48;6.90;;;;;;;16.64;71.95;102348.59;5030151;28;20029;-65
2022/07/12 01:13:17;;;;;;;10.07;6.80;;;;;;;16.63;72.09;102344.22;5032483;28;20026;-65
2022/07/12 01:15:43;;;;;;;9.43;7.03;;;;;;;16.58;72.39;102348.47;5029175;28;20029;-65
2022/07/12 01:18:09;;;;;;;8.13;6.85;;;;;;;16.55;72.70;102351.91;5031930;28;20079;-65
2022/07/12 01:20:35;;;;;;;10.30;7.20;;;;;;;16.51;72.61;102347.41;5032933;28;20037;-65
2022/07/12 01:23:01;;;;;;;9.48;7.57;;;;;;;16.48;72.52;102356.16;5031856;28;20033;-65
2022/07/12 01:25:26;;;;;;;10.88;7.13;;;;;;;16.44;72.39;102358.69;5030533;28;20041;-65
2022/07/12 01:27:52;;;;;;;9.52;6.85;;;;;;;16.41;71.39;102355.97;5031558;28;20037;-65
2022/07/12 01:30:18;;;;;;;9.68;7.43;;;;;;;16.37;71.64;102365.53;5031321;28;20021;-65
2022/07/12 01:32:44;;;;;;;7.70;6.82;;;;;;;16.32;72.85;102364.50;5030989;28;20495;-65
2022/07/12 01:35:10;;;;;;;10.30;7.63;;;;;;;16.28;72.75;102362.66;5029421;28;20049;-65
2022/07/12 01:37:37;;;;;;;10.50;7.85;;;;;;;16.25;72.71;102368.75;5030130;28;20047;-65
2022/07/12 01:40:05;;;;;;;10.30;7.70;;;;;;;16.25;72.99;102374.03;5031738;28;20138;-65
2022/07/12 01:42:31;;;;;;;11.85;8.48;;;;;;;16.24;73.87;102363.47;5029703;28;20035;-65
2022/07/12 01:44:57;;;;;;;8.57;7.10;;;;;;;16.21;73.42;102359.00;5030074;28;20021;-65
2022/07/12 01:47:24;;;;;;;7.05;5.47;;;;;;;16.19;73.36;102368.59;5029562;28;20451;-65
2022/07/12 01:49:50;;;;;;;9.05;5.95;;;;;;;16.19;73.07;102367.69;5031623;28;20038;-66
2022/07/12 01:52:17;;;;;;;7.65;5.72;;;;;;;16.12;72.56;102364.94;5031265;28;20395;-65
2022/07/12 01:54:43;;;;;;;6.40;5.35;;;;;;;16.08;72.53;102365.69;5032186;28;20153;-65
2022/07/12 01:57:08;;;;;;;7.57;5.30;;;;;;;16.01;72.83;102360.25;5031030;28;20603;-65
2022/07/12 01:59:34;;;;;;;7.65;5.55;;;;;;;15.99;72.79;102362.84;5029710;28;20124;-65
2022/07/12 02:02:00;;;;;;;11.88;6.40;;;;;;;15.96;72.36;102353.13;5030304;28;20104;-65
2022/07/12 02:04:26;;;;;;;7.85;6.15;;;;;;;15.94;72.08;102353.94;5029693;28;20021;-65
2022/07/12 02:06:51;;;;;;;10.75;6.40;;;;;;;15.93;72.47;102354.78;5032055;28;20131;-60
2022/07/12 02:09:17;;;;;;;9.18;6.32;;;;;;;15.92;72.91;102355.66;5029697;28;20120;-60
2022/07/12 02:11:43;;;;;;;8.05;6.45;;;;;;;15.90;72.72;102359.97;5031544;28;20164;-59
2022/07/12 02:14:10;;;;;;;8.10;6.40;;;;;;;15.87;73.53;102354.63;5024183;28;20598;-59
2022/07/12 02:16:35;;;;;;;7.97;6.05;;;;;;;15.85;73.54;102356.34;5031609;28;20025;-59
2022/07/12 02:19:01;;;;;;;7.32;5.90;;;;;;;15.82;73.81;102355.41;5028687;28;20041;-59
2022/07/12 02:21:27;;;;;;;7.97;6.32;;;;;;;15.81;73.73;102348.38;5030397;28;20083;-60
2022/07/12 02:23:52;;;;;;;8.77;6.30;;;;;;;15.82;74.00;102350.13;5031803;28;20454;-59
2022/07/12 02:26:18;;;;;;;9.38;6.53;;;;;;;15.83;74.06;102348.41;5025704;28;20028;-59
2022/07/12 02:28:43;;;;;;;8.75;7.10;;;;;;;15.80;73.67;102350.94;5034444;28;20045;-59
2022/07/12 02:31:09;;;;;;;9.05;6.72;;;;;;;15.76;74.20;102349.94;5029607;28;20486;-59
2022/07/12 02:33:34;;;;;;;8.45;6.47;;;;;;;15.74;73.89;102349.03;5027251;28;20025;-59
2022/07/12 02:36:00;;;;;;;8.57;7.03;;;;;;;15.71;74.29;102354.19;5030157;28;20489;-59
2022/07/12 02:38:25;;;;;;;8.20;6.80;;;;;;;15.67;73.94;102349.72;5030758;28;20029;-59
2022/07/12 02:40:53;;;;;;;8.80;7.03;;;;;;;15.66;73.82;102353.19;5029810;28;20399;-59
2022/07/12 02:43:22;;;;;;;8.95;7.07;;;;;;;15.61;73.89;102350.44;5028113;28;20095;-59
2022/07/12 02:45:47;;;;;;;7.55;6.72;;;;;;;15.61;73.72;102352.16;5031137;28;20033;-60
2022/07/12 02:48:13;;;;;;;10.32;6.40;;;;;;;15.59;73.74;102357.38;5029983;28;20029;-59
2022/07/12 02:50:39;;;;;;;7.20;5.90;;;;;;;15.58;74.38;102357.34;5027898;28;20082;-60
2022/07/12 02:53:05;;;;;;;6.95;5.82;;;;;;;15.54;74.27;102356.38;5029230;28;20037;-59
2022/07/12 02:55:30;;;;;;;7.55;6.30;;;;;;;15.51;74.17;102353.66;5030849;28;20033;-59
2022/07/12 02:57:56;;;;;;;8.55;6.10;;;;;;;15.52;73.85;102349.28;5030387;28;20075;-59
2022/07/12 03:00:21;;;;;;;7.72;6.32;;;;;;;15.49;73.74;102352.72;5030021;28;20492;-59
2022/07/12 03:02:46;;;;;;;8.80;6.00;;;;;;;15.46;74.86;102350.91;5029454;28;20079;-59
2022/07/12 03:05:12;;;;;;;8.48;5.97;;;;;;;15.44;74.72;102351.72;5028632;28;20036;-59
2022/07/12 03:07:37;;;;;;;8.05;6.45;;;;;;;15.39;74.63;102350.69;5029226;28;20021;-65
2022/07/12 03:10:03;;;;;;;8.40;6.20;;;;;;;15.36;74.70;102348.84;5029628;28;20028;-65
2022/07/12 03:12:29;;;;;;;8.25;6.40;;;;;;;15.35;74.90;102347.09;5027639;28;20480;-65
2022/07/12 03:14:54;;;;;;;10.18;6.10;;;;;;;15.33;74.09;102356.66;5030088;28;20040;-65
2022/07/12 03:17:20;;;;;;;6.95;5.75;;;;;;;15.33;73.95;102347.91;5029060;28;20033;-65
2022/07/12 03:19:46;;;;;;;7.65;5.80;;;;;;;15.27;74.88;102346.00;5027366;28;20040;-65
2022/07/12 03:22:11;;;;;;;6.53;5.50;;;;;;;15.28;74.53;102350.41;5027727;28;20021;-65
2022/07/12 03:24:37;;;;;;;7.72;5.80;;;;;;;15.26;74.60;102342.44;5029248;28;20041;-65
2022/07/12 03:27:02;;;;;;;9.05;6.00;;;;;;;15.24;74.50;102343.28;5032222;28;20048;-65
2022/07/12 03:29:27;;;;;;;8.82;6.00;;;;;;;15.19;75.00;102347.50;5031691;28;20098;-65
2022/07/12 03:31:53;;;;;;;7.78;5.97;;;;;;;15.18;74.50;102349.25;5028691;28;20396;-65
2022/07/12 03:34:18;;;;;;;8.93;6.20;;;;;;;15.17;74.62;102347.44;5027636;28;20094;-65
2022/07/12 03:36:44;;;;;;;10.43;5.70;;;;;;;15.16;74.23;102350.03;5026701;28;20033;-65
2022/07/12 03:39:09;;;;;;;8.10;6.47;;;;;;;15.11;74.73;102345.53;5029126;28;20506;-66
2022/07/12 03:41:35;;;;;;;7.18;5.93;;;;;;;15.08;75.04;102353.31;5026963;28;20108;-65
2022/07/12 03:44:00;;;;;;;8.80;6.35;;;;;;;15.06;75.81;102355.03;5030208;28;20504;-65
2022/07/12 03:46:25;;;;;;;8.63;6.28;;;;;;;15.05;74.83;102357.63;5030234;28;20021;-65
2022/07/12 03:48:50;;;;;;;8.55;6.65;;;;;;;15.02;75.39;102357.50;5027444;28;20108;-65
2022/07/12 03:51:16;;;;;;;9.30;6.75;;;;;;;15.02;75.10;102352.25;5029420;28;20021;-65
2022/07/12 03:53:41;;;;;;;8.88;6.82;;;;;;;15.01;75.15;102353.13;5027151;28;20056;-65
2022/07/12 03:56:07;;;;;;;8.55;6.53;;;;;;;14.99;75.10;102357.41;5030011;28;20021;-65
2022/07/12 03:58:32;;;;;;;8.38;6.40;;;;;;;14.97;75.03;102356.50;5028835;28;20108;-65
2022/07/12 04:00:57;;;;;;;8.32;5.90;;;;;;;14.97;75.06;102364.38;5026442;28;20021;-65
2022/07/12 04:03:22;;;;;;;7.95;5.72;;;;;;;14.94;74.96;102357.28;5029139;28;20090;-65
2022/07/12 04:05:48;;;;;;;8.88;5.90;;;;;;;14.92;75.18;102359.84;5027000;28;20026;-65
2022/07/12 04:08:13;;;;;;;8.90;6.38;;;;;;;14.85;76.40;102349.16;5029570;28;20017;-65
2022/07/12 04:10:38;;;;;;;8.07;6.10;;;;;;;14.78;75.87;102348.94;5029169;28;20036;-65
2022/07/12 04:13:04;;;;;;;8.73;6.20;;;;;;;14.77;75.61;102351.50;5026394;28;20029;-65
2022/07/12 04:15:29;;;;;;;9.75;6.65;;;;;;;14.76;75.41;102347.13;5028292;28;20021;-65
2022/07/12 04:17:54;;;;;;;9.23;6.97;;;;;;;14.74;75.74;102344.47;5027787;28;20069;-65
2022/07/12 04:20:20;;;;;;;8.80;6.78;;;;;;;14.75;76.22;102347.97;5029001;28;20080;-65
2022/07/12 04:22:45;;;;;;;9.63;6.78;;;;;;;14.72;76.24;102356.63;5028329;28;20116;-65
2022/07/12 04:25:10;;;;;;;10.25;7.20;;;;;;;14.71;76.31;102359.19;5023952;28;20017;-65
2022/07/12 04:27:36;;;;;;;11.63;7.25;;;;;;;14.66;76.22;102359.06;5026117;28;20481;-65
2022/07/12 04:30:02;;;;;;;10.57;6.57;;;;;;;14.66;76.44;102361.69;5026245;28;20029;-65
2022/07/12 04:32:27;;;;;;;8.75;6.82;;;;;;;14.65;75.88;102356.41;5029092;28;20033;-65
2022/07/12 04:34:53;;;;;;;8.18;6.15;;;;;;;14.65;76.01;102361.66;5027674;28;20022;-65
2022/07/12 04:37:18;;;;;;;10.70;7.10;;;;;;;14.64;76.28;102372.97;5028689;28;20115;-65
2022/07/12 04:39:43;;;;;;;9.63;6.97;;;;;;;14.62;76.96;102374.66;5032264;28;20155;-65
2022/07/12 04:42:09;;;;;;;8.90;7.10;;;;;;;14.61;77.48;102371.09;5021562;28;20037;-65
2022/07/12 04:44:34;;;;;;;9.38;7.40;;;;;;;14.60;77.18;102369.34;5032862;28;20483;-65
2022/07/12 04:46:59;;;;;;;10.27;7.53;;;;;;;14.60;77.34;102364.09;5031138;28;20029;-65
2022/07/12 04:49:25;;;;;;;11.52;8.50;;;;;;;14.60;77.96;102369.34;5030576;28;20168;-65
2022/07/12 04:51:50;;;;;;;12.20;8.23;;;;;;;14.60;77.88;102364.09;5031844;28;20466;-65
2022/07/12 04:54:15;;;;;;;11.95;9.20;;;;;;;14.63;78.48;102373.81;5030608;28;20048;-65
2022/07/12 04:56:40;;;;;;;12.88;10.32;;;;;;;14.64;78.65;102371.22;5031643;28;20033;-65
2022/07/12 04:59:06;;;;;;;12.60;10.48;;;;;;;14.66;78.81;102368.69;5031014;28;20025;-65
2022/07/12 05:01:32;;;;;;;14.50;11.20;;;;;;;14.67;79.16;102370.44;5031701;28;20029;-65
2022/07/12 05:03:58;;;;;;;14.50;11.20;;;;;;;14.69;79.58;102368.78;5031086;28;20408;-65
2022/07/12 05:06:23;;;;;;;17.45;12.13;;;;;;;14.70;79.90;102366.19;5031903;28;20030;-65
2022/07/12 05:08:48;;;;;;;18.85;13.20;;;;;;;14.75;80.77;102375.09;5032401;28;20068;-65
2022/07/12 05:11:14;;;;;;;15.77;11.88;;;;;;;14.78;80.47;102376.91;5031390;28;20476;-65
2022/07/12 05:13:39;;;;;;;18.17;13.05;;;;;;;14.80;80.59;102377.84;5032729;28;20022;-65
2022/07/12 05:16:07;;;;;;;16.00;12.77;;;;;;;14.84;80.13;102389.34;5031320;28;20049;-65
2022/07/12 05:18:32;;;;;;;20.73;14.25;;;;;;;14.88;80.83;102391.22;5030064;28;20056;-65
2022/07/12 05:20:58;;;;;;;20.67;14.40;;;;;;;14.91;80.99;102388.69;5030124;28;20107;-64
2022/07/12 05:23:24;;;;;;;17.98;14.93;;;;;;;14.95;81.07;102393.19;5030227;28;20044;-65
2022/07/12 05:25:49;;;;;;;20.92;16.13;;;;;;;14.97;82.21;102391.50;5031170;28;20102;-65
2022/07/12 05:28:18;;;;;;;20.30;15.65;;;;;;;15.02;82.11;102396.88;5030171;28;20057;-64
2022/07/12 05:30:43;;;;;;;20.63;15.93;;;;;;;15.05;82.76;102402.25;5032519;28;20488;-65
2022/07/12 05:33:09;;;;;;;21.63;16.45;;;;;;;15.08;82.36;102405.84;5027658;28;20040;-64
2022/07/12 05:35:34;;;;;;;24.55;19.45;;;;;;;15.12;83.85;102412.97;5031014;28;20072;-64
2022/07/12 05:37:59;;;;;;;25.08;19.42;;;;;;;15.17;83.68;102409.59;5029990;28;20476;-65
2022/07/12 05:40:25;;;;;;;25.80;19.48;;;;;;;15.19;83.55;102411.38;5030081;28;20124;-65
2022/07/12 05:42:51;;;;;;;25.92;19.95;;;;;;;15.24;84.23;102415.06;5029620;28;20297;-65
2022/07/12 05:45:16;;;;;;;25.02;20.05;;;;;;;15.27;84.08;102424.78;5031618;28;20558;-65
2022/07/12 05:47:42;;;;;;;30.50;23.75;;;;;;;15.32;85.08;102423.16;5031818;28;20034;-65
2022/07/12 05:50:08;;;;;;;31.27;22.80;;;;;;;15.37;84.75;102429.44;5029558;28;20076;-65
2022/07/12 05:55:17;;;;;;;35.85;26.02;;;;;;;15.46;87.01;102436.69;5026397;28;20031;-65
2022/07/12 05:57:42;;;;;;;33.35;25.05;;;;;;;15.53;86.36;102436.03;5029416;28;20029;-65
2022/07/12 06:00:08;;;;;;;36.78;25.98;;;;;;;15.58;86.50;102441.41;5030833;28;20028;-65
2022/07/12 06:02:33;;;;;;;35.72;26.20;;;;;;;15.64;87.97;102441.56;5029311;28;20570;-65
2022/07/12 06:04:58;;;;;;;33.72;26.15;;;;;;;15.71;87.47;102437.41;5029849;28;20148;-65
2022/07/12 06:07:24;;;;;;;39.40;29.40;;;;;;;15.79;88.70;102442.06;5031739;28;20091;-65
2022/07/12 06:09:49;;;;;;;38.47;29.58;;;;;;;15.88;88.48;102443.16;5031927;28;20040;-65
2022/07/12 06:12:14;;;;;;;42.70;29.38;;;;;;;15.95;88.74;102442.47;5030092;28;20063;-65
2022/07/12 06:14:40;;;;;;;42.17;30.27;;;;;;;16.03;89.15;102442.69;5031241;28;20787;-65
2022/07/12 06:17:08;;;;;;;42.83;31.10;;;;;;;16.10;89.87;102442.88;5030273;28;20077;-65
2022/07/12 06:19:34;;;;;;;45.65;30.80;;;;;;;16.19;89.61;102444.84;5030987;28;20029;-65
2022/07/12 06:22:00;;;;;;;41.78;29.98;;;;;;;16.25;89.38;102446.75;5029973;28;20407;-65
2022/07/12 06:24:25;;;;;;;43.70;29.25;;;;;;;16.32;89.38;102449.59;5029006;28;20503;-65
2022/07/12 06:26:51;;;;;;;43.70;30.02;;;;;;;16.40;89.83;102444.53;5031359;28;20049;-65
2022/07/12 06:29:16;;;;;;;41.70;29.48;;;;;;;16.49;89.76;102454.38;5028519;28;20512;-65
2022/07/12 06:31:41;;;;;;;44.67;28.98;;;;;;;16.56;88.54;102443.16;5030007;28;20103;-65
2022/07/12 06:34:07;;;;;;;39.20;27.92;;;;;;;16.61;87.70;102443.28;5027699;28;20120;-65
2022/07/12 06:36:32;;;;;;;39.97;28.23;;;;;;;16.65;87.29;102440.75;5030591;28;20049;-65
2022/07/12 06:38:57;;;;;;;41.03;28.02;;;;;;;16.72;87.52;102444.44;5030967;28;20480;-65
2022/07/12 06:41:23;;;;;;;42.45;28.70;;;;;;;16.80;87.94;102445.50;5026009;28;20030;-65
2022/07/12 06:43:48;;;;;;;42.75;29.40;;;;;;;16.91;88.53;102447.53;5030641;28;20060;-65
2022/07/12 06:46:14;;;;;;;43.15;30.77;;;;;;;16.98;89.00;102446.81;5031616;28;20020;-65
2022/07/12 06:48:39;;;;;;;45.35;30.52;;;;;;;17.07;89.10;102446.13;5028824;28;20033;-65
2022/07/12 06:51:04;;;;;;;56.80;28.88;;;;;;;17.14;88.22;102450.69;5026792;28;20043;-65
2022/07/12 06:53:29;;;;;;;39.05;28.75;;;;;;;17.22;87.79;102449.13;5029163;28;20029;-65
2022/07/12 06:55:57;;;;;;;38.85;27.88;;;;;;;17.30;87.60;102451.91;5031749;28;20049;-65
2022/07/12 06:58:22;;;;;;;41.50;28.15;;;;;;;17.41;88.49;102439.84;5033336;28;20044;-65
2022/07/12 07:00:47;;;;;;;41.60;27.25;;;;;;;17.48;87.08;102452.31;5030547;28;20071;-65
2022/07/12 07:03:13;;;;;;;39.28;25.95;;;;;;;17.57;87.27;102451.59;5030440;28;20045;-66
2022/07/12 07:05:38;;;;;;;37.95;27.88;;;;;;;17.66;87.79;102441.22;5033334;28;20839;-65
2022/07/12 07:08:03;;;;;;;39.90;25.10;;;;;;;17.80;88.75;102438.88;5033894;28;20029;-65
2022/07/12 07:10:29;;;;;;;40.22;26.48;;;;;;;17.90;87.38;102445.22;5030130;28;20068;-65
2022/07/12 07:12:54;;;;;;;38.33;26.20;;;;;;;18.05;88.80;102447.28;5029300;28;20029;-65
2022/07/12 07:15:20;;;;;;;37.25;24.35;;;;;;;18.13;87.88;102452.69;5026334;28;20025;-65
2022/07/12 07:17:45;;;;;;;33.80;22.08;;;;;;;18.22;86.88;102448.47;5029393;28;20029;-65
2022/07/12 07:20:11;;;;;;;34.45;21.05;;;;;;;18.29;86.33;102445.94;5028158;28;20026;-65
2022/07/12 07:22:36;;;;;;;31.77;20.38;;;;;;;18.40;85.78;102447.88;5028415;28;20075;-65
2022/07/12 07:25:02;;;;;;;30.70;19.38;;;;;;;18.48;85.36;102448.03;5028369;28;20484;-65
2022/07/12 07:27:27;;;;;;;29.05;18.55;;;;;;;18.60;84.23;102448.22;5035964;28;20135;-65
2022/07/12 07:32:36;;;;;;;26.13;17.38;;;;;;;18.83;83.78;102447.69;5030051;28;20434;-65
2022/07/12 07:35:04;;;;;;;25.30;16.10;;;;;;;18.94;83.68;102448.78;5030660;28;20476;-65
2022/07/12 07:37:29;;;;;;;20.60;14.23;;;;;;;19.05;82.75;102445.41;5027507;28;20025;-65
2022/07/12 07:39:54;;;;;;;23.17;14.90;;;;;;;19.18;81.49;102443.81;5027603;28;20026;-65
2022/07/12 07:42:20;;;;;;;21.02;14.30;;;;;;;19.27;81.97;102441.28;5023302;28;20033;-65
2022/07/12 07:44:45;;;;;;;18.55;13.15;;;;;;;19.28;81.03;102441.31;5017526;28;20534;-65
2022/07/12 07:47:10;;;;;;;18.92;12.90;;;;;;;19.41;80.44;102433.56;5029185;28;20029;-65
2022/07/12 07:49:36;;;;;;;19.73;12.65;;;;;;;19.46;79.85;102432.75;5029597;28;20699;-65
2022/07/12 07:52:01;;;;;;;18.85;12.30;;;;;;;19.53;78.44;102431.03;5027267;28;20028;-65
2022/07/12 07:54:27;;;;;;;16.65;11.25;;;;;;;19.59;77.34;102430.22;5027285;28;20206;-67
2022/07/12 07:56:52;;;;;;;15.85;11.82;;;;;;;19.63;77.60;102432.91;5027444;28;20035;-65
2022/07/12 07:59:17;;;;;;;17.60;12.02;;;;;;;19.67;76.91;102433.84;5027767;28;20025;-65
2022/07/12 08:01:44;;;;;;;13.57;10.50;;;;;;;19.76;78.49;102433.94;5030302;28;20022;-65
2022/07/12 08:04:14;;;;;;;15.23;10.65;;;;;;;19.78;77.63;102429.63;5031133;28;20026;-65
2022/07/12 08:06:41;;;;;;;17.23;14.05;;;;;;;19.84;75.92;102436.69;5028457;28;20025;-65
2022/07/12 08:09:06;;;;;;;20.65;14.48;;;;;;;19.92;76.25;102435.03;5030156;28;20108;-65
2022/07/12 08:11:33;;;;;;;17.80;13.13;;;;;;;19.97;75.48;102435.06;5027382;28;20608;-65
2022/07/12 08:13:58;;;;;;;18.90;13.93;;;;;;;20.02;74.41;102435.13;5029205;28;20752;-65
2022/07/12 08:16:24;;;;;;;17.92;13.10;;;;;;;20.04;75.36;102439.56;5028815;28;20021;-65
2022/07/12 08:18:49;;;;;;;15.98;11.82;;;;;;;20.09;74.65;102432.56;5029123;28;20032;-66
2022/07/12 08:21:14;;;;;;;15.88;10.75;;;;;;;20.11;74.86;102436.09;5028161;28;20026;-65
2022/07/12 08:23:40;;;;;;;17.38;11.82;;;;;;;20.17;74.99;102439.69;5026171;28;20057;-66
2022/07/12 08:26:05;;;;;;;15.52;11.88;;;;;;;20.22;72.92;102437.94;5026073;28;20480;-66
2022/07/12 08:28:30;;;;;;;13.70;11.57;;;;;;;20.23;73.64;102437.97;5030390;28;20053;-66
2022/07/12 08:30:55;;;;;;;15.05;11.07;;;;;;;20.32;73.55;102438.06;5028317;28;20120;-66
2022/07/12 08:33:21;;;;;;;14.90;11.40;;;;;;;20.39;73.61;102438.09;5026170;28;20078;-65
2022/07/12 08:35:46;;;;;;;16.08;11.80;;;;;;;20.49;71.27;102442.59;5030641;28;20033;-65
2022/07/12 08:38:12;;;;;;;19.00;11.93;;;;;;;20.53;72.56;102440.88;5035856;28;20105;-65
2022/07/12 08:40:38;;;;;;;15.60;12.27;;;;;;;20.59;71.58;102447.09;5034328;28;20388;-65
2022/07/12 08:43:03;;;;;;;19.83;11.30;;;;;;;20.61;72.93;102441.78;5030051;28;20396;-65
2022/07/12 08:45:28;;;;;;;14.30;11.20;;;;;;;20.65;72.24;102444.50;5029998;28;20033;-64
2022/07/12 08:47:54;;;;;;;15.88;11.32;;;;;;;20.65;72.21;102449.81;5027972;28;20030;-65
2022/07/12 08:50:22;;;;;;;15.88;12.38;;;;;;;20.69;72.34;102450.72;5027981;28;20450;-64
2022/07/12 08:52:51;;;;;;;13.20;11.10;;;;;;;20.73;72.70;102455.19;5028195;28;20025;-65
2022/07/12 08:55:34;;;;;;;16.23;11.57;;;;;;;20.79;72.71;102462.28;5027951;28;20025;-65
2022/07/12 08:58:02;;;;;;;15.10;11.63;;;;;;;20.83;72.15;102464.09;5024893;28;20034;-65
2022/07/12 09:00:28;;;;;;;16.23;12.13;;;;;;;20.91;72.42;102458.81;5027526;28;20112;-65
2022/07/12 09:02:56;;;;;;;14.65;10.55;;;;;;;20.96;72.56;102457.97;5028429;28;20104;-64
2022/07/12 09:05:27;;;;;;;13.75;11.35;;;;;;;21.05;72.49;102459.78;5029605;28;20060;-65
2022/07/12 09:08:02;;;;;;;16.40;12.50;;;;;;;21.14;70.95;102461.59;5028937;28;20025;-60
2022/07/12 09:10:28;;;;;;;15.98;13.23;;;;;;;21.29;72.00;102459.06;5028080;28;20017;-60
2022/07/12 09:12:53;;;;;;;16.33;13.40;;;;;;;21.35;69.42;102464.38;5029496;28;20036;-60
2022/07/12 09:15:23;;;;;;;13.82;11.90;;;;;;;21.44;69.49;102460.00;5029360;28;20547;-60
2022/07/12 09:17:58;;;;;;;17.73;12.73;;;;;;;21.54;69.43;102451.22;5027968;28;20580;-60
2022/07/12 09:20:34;;;;;;;14.27;11.30;;;;;;;21.70;70.03;102450.38;5029268;28;20049;-60
2022/07/12 09:23:05;;;;;;;18.15;11.80;;;;;;;21.77;66.82;102455.69;5030965;28;20017;-60
2022/07/12 09:25:32;;;;;;;15.68;11.45;;;;;;;21.81;67.64;102458.38;5031837;28;20029;-60
2022/07/12 09:27:58;;;;;;;11.93;10.15;;;;;;;21.88;68.43;102444.25;5032862;28;20415;-60
2022/07/12 09:30:27;;;;;;;12.60;9.70;;;;;;;21.99;69.43;102444.25;5032997;28;20053;-60
2022/07/12 09:36:07;;;;;;;13.27;9.90;;;;;;;22.12;69.50;102444.28;5032094;28;20114;-61
2022/07/12 09:38:45;;;;;;;12.50;10.52;;;;;;;22.26;68.59;102446.94;5032590;28;20087;-65
2022/07/12 09:41:16;;;;;;;13.25;10.80;;;;;;;22.29;68.07;102439.88;5032708;28;20488;-64
2022/07/12 09:43:42;;;;;;;13.18;10.45;;;;;;;22.34;66.01;102435.47;5032879;28;20159;-65
2022/07/12 09:46:08;;;;;;;13.35;10.05;;;;;;;22.43;67.29;102442.53;5032113;28;20501;-65
2022/07/12 09:48:33;;;;;;;12.85;9.60;;;;;;;22.53;66.42;102444.31;5032825;28;20619;-65
2022/07/12 09:51:01;;;;;;;11.55;8.35;;;;;;;22.62;66.07;102439.88;5032711;28;20035;-65
2022/07/12 09:53:30;;;;;;;11.68;9.52;;;;;;;22.68;65.57;102431.91;5032561;28;20030;-65
2022/07/12 09:55:55;;;;;;;;;;;;;;;22.78;68.60;102444.28;5031175;28;20055;-65
2022/07/12 09:58:30;;;;;;;11.43;8.63;;;;;;;22.89;66.63;102438.94;5031193;28;20383;-65
2022/07/12 10:00:59;;;;;;;13.65;10.25;;;;;;;23.03;65.48;102437.16;5032412;28;20041;-65
2022/07/12 10:03:27;;;;;;;;;;;;;;;23.14;67.29;102428.28;5032750;28;20032;-65
2022/07/12 10:05:54;;;;;;;12.17;9.43;;;;;;;23.27;64.73;102428.25;5029508;28;19959;-65
2022/07/12 10:08:20;;;;;;;11.82;9.15;;;;;;;23.34;62.58;102428.19;5032384;28;20373;-65
2022/07/12 10:10:47;;;;;;;11.38;9.20;;;;;;;23.43;64.41;102428.16;5032613;28;20100;-65
2022/07/12 10:13:14;;;;;;;12.15;9.40;;;;;;;23.48;62.30;102425.47;5032453;28;20057;-65
2022/07/12 10:15:43;;;;;;;16.02;8.68;;;;;;;23.54;63.48;102421.00;5028662;28;20029;-66
2022/07/12 10:18:14;;;;;;;;;;;;;;;23.63;65.39;102414.75;5041128;28;20036;-65
2022/07/12 10:20:42;;;;;;;9.65;7.30;;;;;;;23.67;63.60;102411.19;5033093;28;19944;-65
2022/07/12 10:23:19;;;;;;;10.25;7.78;;;;;;;23.74;62.75;102407.59;5034265;28;20032;-65
2022/07/12 10:25:47;;;;;;;9.18;7.13;;;;;;;23.81;63.88;102407.53;5029013;28;20025;-66
2022/07/12 10:28:12;;;;;;;9.98;6.47;;;;;;;23.85;61.65;102407.50;5036624;28;20076;-66
2022/07/12 10:30:45;;;;;;;7.57;6.10;;;;;;;23.90;60.55;102412.84;5031980;28;20407;-66
2022/07/12 10:33:21;;;;;;;6.75;6.05;;;;;;;23.92;61.74;102405.72;5029615;28;20030;-66
2022/07/12 10:36:07;;;;;;;9.65;6.43;;;;;;;23.97;61.73;102409.25;5030636;28;20021;-66
2022/07/12 10:38:35;;;;;;;8.77;6.38;;;;;;;24.02;60.95;102406.53;5033692;28;20488;-66
2022/07/12 10:41:18;;;;;;;;;;;;;;;24.16;62.63;102406.41;5029125;28;20447;-66
2022/07/12 10:46:28;;;;;;;7.32;6.63;;;;;;;24.27;61.07;102418.78;5032020;28;20095;-65
2022/07/12 10:49:25;;;;;;;8.55;6.70;;;;;;;24.41;61.67;102410.63;5031131;28;20026;-65
2022/07/12 10:52:09;;;;;;;9.73;7.60;;;;;;;24.46;60.29;102406.16;5019769;28;20708;-66
2022/07/12 10:54:35;;;;;;;8.32;6.63;;;;;;;24.51;59.42;102407.91;5026327;28;20499;-66
2022/07/12 10:57:01;;;;;;;8.73;7.82;;;;;;;24.56;57.79;102408.72;5032259;28;20528;-65
2022/07/12 10:59:27;;;;;;;11.30;8.48;;;;;;;24.62;57.30;102403.34;5029084;28;20112;-65
2022/07/12 11:01:55;;;;;;;12.68;9.52;;;;;;;24.69;58.56;102415.72;5040759;28;20044;-65
2022/07/12 11:04:20;;;;;;;8.48;7.43;;;;;;;24.76;59.13;102409.41;5034099;28;20091;-65
2022/07/12 11:06:46;;;;;;;8.38;6.70;;;;;;;24.82;57.18;102412.03;5030179;28;20493;-61
2022/07/12 11:09:12;;;;;;;8.90;7.43;;;;;;;24.86;56.90;102414.69;5030724;28;20451;-61
2022/07/12 11:11:43;;;;;;;10.30;8.10;;;;;;;24.93;58.02;102416.38;5029858;28;20041;-61
2022/07/12 11:14:09;;;;;;;8.70;7.50;;;;;;;24.96;57.57;102411.88;5028458;28;20057;-61
2022/07/12 11:16:34;;;;;;;8.95;7.82;;;;;;;25.00;57.45;102404.72;5030733;28;20110;-61
2022/07/12 11:19:00;;;;;;;9.60;7.13;;;;;;;25.03;57.71;102407.34;5029408;28;20075;-61
2022/07/12 11:21:25;;;;;;;9.13;7.60;;;;;;;25.09;57.69;102401.06;5033679;28;20095;-61
2022/07/12 11:23:51;;;;;;;9.27;7.60;;;;;;;25.15;57.96;102409.84;5032080;28;20022;-61
2022/07/12 11:26:17;;;;;;;9.48;7.57;;;;;;;25.24;56.76;102400.84;5025227;28;20034;-61